Terminal Aerodrome Forecast
Issued by NWS

Home | Current Version | Previous Version | Text Only | Print | Product List | Glossary On
Versions: 1 2 3 4 5 6 7 8 9 10 11 12 13 14 15 16 17
000
FTUS43 KIND 090520
TAFLAF
TAF
KLAF 090520Z 0906/1006 29009KT P6SM OVC015
     FM090700 29009KT P6SM OVC020
     FM091800 28008KT P6SM BKN035
     FM100100 27007KT P6SM BKN030
     FM100400 27005KT P6SM OVC040
      AMD LTD TO CLD VIS AND WIND TIL 091400=

USA.gov is the U.S. government's official web portal to all federal, state and local government web resources and services.